TimeCDT,TemperatureF,Dew PointF,Humidity,Sea Level PressureIn,VisibilityMPH,Wind Direction,Wind SpeedMPH,Gust SpeedMPH,PrecipitationIn,Events,Conditions,WindDirDegrees,DateUTC
12:54 AM,61.0,54.0,78,30.08,10.0,East,4.6,-,N/A,,Clear,100,2013-06-20 05:54:00
1:54 AM,57.9,54.0,87,30.09,10.0,ESE,5.8,-,N/A,,Clear,120,2013-06-20 06:54:00
2:54 AM,60.1,54.0,80,30.09,10.0,South,5.8,-,N/A,,Clear,170,2013-06-20 07:54:00
3:54 AM,61.0,53.1,75,30.09,10.0,South,6.9,-,N/A,,Scattered Clouds,180,2013-06-20 08:54:00
4:54 AM,61.0,53.1,75,30.09,10.0,Calm,Calm,-,N/A,,Scattered Clouds,0,2013-06-20 09:54:00
5:54 AM,61.0,53.1,75,30.09,10.0,SSE,6.9,-,N/A,,Scattered Clouds,160,2013-06-20 10:54:00
6:54 AM,64.0,54.0,70,30.09,10.0,SE,5.8,-,N/A,,Overcast,140,2013-06-20 11:54:00
7:54 AM,64.9,54.0,68,30.10,10.0,South,8.1,-,N/A,,Partly Cloudy,180,2013-06-20 12:54:00
8:54 AM,69.1,55.9,63,30.11,10.0,South,5.8,-,N/A,,Clear,170,2013-06-20 13:54:00
9:54 AM,73.0,57.0,57,30.11,10.0,South,5.8,-,N/A,,Scattered Clouds,180,2013-06-20 14:54:00
10:54 AM,75.9,57.9,54,30.11,10.0,South,6.9,-,N/A,,Scattered Clouds,170,2013-06-20 15:54:00
11:54 AM,79.0,57.9,48,30.09,10.0,SSW,10.4,-,N/A,,Clear,200,2013-06-20 16:54:00
12:54 PM,81.0,57.0,44,30.09,10.0,South,9.2,17.3,N/A,,Partly Cloudy,190,2013-06-20 17:54:00
1:54 PM,81.0,59.0,47,30.08,10.0,SW,11.5,-,N/A,,Clear,220,2013-06-20 18:54:00
2:54 PM,81.0,59.0,47,30.07,10.0,SSW,9.2,-,N/A,,Overcast,210,2013-06-20 19:54:00
3:54 PM,80.1,55.9,43,30.05,10.0,SSW,9.2,-,N/A,,Partly Cloudy,210,2013-06-20 20:54:00
4:54 PM,82.0,55.0,39,30.04,10.0,South,8.1,-,N/A,,Partly Cloudy,190,2013-06-20 21:54:00
5:54 PM,82.0,54.0,38,30.03,10.0,South,9.2,-,N/A,,Clear,190,2013-06-20 22:54:00
6:54 PM,82.9,57.0,41,30.01,10.0,South,6.9,-,N/A,,Clear,170,2013-06-20 23:54:00
7:54 PM,79.0,57.0,47,30.03,10.0,South,6.9,-,N/A,,Clear,170,2013-06-21 00:54:00
8:54 PM,75.0,55.0,50,30.03,10.0,SSE,4.6,-,N/A,,Clear,150,2013-06-21 01:54:00
9:54 PM,73.0,55.9,55,30.04,10.0,East,4.6,-,N/A,,Partly Cloudy,100,2013-06-21 02:54:00
10:54 PM,73.0,59.0,61,30.05,10.0,SE,10.4,-,N/A,,Overcast,140,2013-06-21 03:54:00
11:54 PM,71.1,61.0,70,30.08,10.0,ENE,6.9,-,N/A,,Overcast,60,2013-06-21 04:54:00